Time;durP1;ratioP1;P1;durP2;ratioP2;P2;SDS_P1;SDS_P2;PMS_P1;PMS_P2;Temp;Humidity;BMP_temperature;BMP_pressure;BME280_temperature;BME280_humidity;BME280_pressure;Samples;Min_cycle;Max_cycle;Signal;HPM_P1;HPM_P2
2023/11/14 00:02:58;;;;;;;21.00;13.80;;;;;;;5.03;76.15;98711.45;131257;1256;107429;-82
2023/11/14 00:06:04;;;;;;;24.30;14.40;;;;;;;5.06;76.23;98706.95;131085;1253;107724;-82
2023/11/14 00:09:10;;;;;;;31.40;22.20;;;;;;;5.05;76.41;98697.19;131135;1256;108548;-82
2023/11/14 00:12:16;;;;;;;19.70;13.60;;;;;;;5.04;76.63;98688.83;131165;1256;107174;-83
2023/11/14 00:15:21;;;;;;;21.90;14.30;;;;;;;5.01;76.55;98679.46;131087;1256;107283;-82
2023/11/14 00:18:27;;;;;;;27.50;17.10;;;;;;;4.97;76.66;98673.39;131213;1256;106755;-82
2023/11/14 00:21:33;;;;;;;33.40;18.40;;;;;;;4.92;76.77;98672.04;131103;1256;106686;-82
2023/11/14 00:24:38;;;;;;;58.00;37.50;;;;;;;4.87;76.92;98689.98;131021;1254;106572;-82
2023/11/14 00:27:44;;;;;;;29.70;20.00;;;;;;;4.84;77.02;98708.48;131069;1252;108596;-83
2023/11/14 00:30:50;;;;;;;22.20;14.00;;;;;;;4.84;77.18;98719.75;130981;1259;108267;-83
2023/11/14 00:33:55;;;;;;;15.30;10.30;;;;;;;4.85;77.30;98711.87;131157;1261;106890;-83
2023/11/14 00:37:04;;;;;;;20.30;14.30;;;;;;;4.90;77.41;98682.63;131121;1257;106405;-82
2023/11/14 00:40:12;;;;;;;32.60;20.80;;;;;;;4.97;77.78;98653.99;131205;1256;107212;-83
2023/11/14 00:43:18;;;;;;;23.50;14.60;;;;;;;4.97;77.84;98630.52;131148;1256;106745;-82
2023/11/14 00:46:23;;;;;;;18.40;11.70;;;;;;;4.97;77.88;98593.67;131096;1253;106141;-83
2023/11/14 00:49:29;;;;;;;25.60;16.10;;;;;;;4.95;78.18;98554.09;131207;1254;106527;-83
2023/11/14 00:52:34;;;;;;;31.50;18.70;;;;;;;4.88;78.30;98522.40;130956;1254;107527;-83
2023/11/14 00:55:40;;;;;;;28.60;16.80;;;;;;;4.77;78.60;98491.26;131141;1256;107861;-83
2023/11/14 00:58:46;;;;;;;20.40;12.80;;;;;;;4.69;78.79;98460.05;131095;1256;107702;-83
2023/11/14 01:01:51;;;;;;;21.10;12.40;;;;;;;4.62;78.77;98454.20;130837;1256;106930;-83
2023/11/14 01:04:57;;;;;;;22.80;14.20;;;;;;;4.60;79.12;98466.21;131143;1253;108818;-83
2023/11/14 01:08:03;;;;;;;21.10;12.90;;;;;;;4.59;79.19;98462.23;131030;1254;105505;-82
2023/11/14 01:11:10;;;;;;;19.70;13.10;;;;;;;4.62;79.47;98454.95;131023;1256;107860;-83
2023/11/14 01:14:16;;;;;;;25.20;14.90;;;;;;;4.64;79.60;98438.70;131079;1253;106763;-82
2023/11/14 01:17:22;;;;;;;19.40;12.00;;;;;;;4.67;79.83;98452.13;131131;1253;107696;-83
2023/11/14 01:20:28;;;;;;;25.70;15.60;;;;;;;4.64;80.22;98461.27;131165;1256;108370;-83
2023/11/14 01:23:34;;;;;;;23.10;14.20;;;;;;;4.63;80.20;98464.30;131042;1253;106738;-82
2023/11/14 01:26:40;;;;;;;23.20;14.00;;;;;;;4.61;80.30;98472.98;131050;1256;105600;-83
2023/11/14 01:29:50;;;;;;;28.70;16.10;;;;;;;4.65;80.46;98481.04;131009;1253;107737;-83
2023/11/14 01:32:56;;;;;;;20.70;13.40;;;;;;;4.73;80.57;98479.34;131216;1256;106978;-83
2023/11/14 01:36:02;;;;;;;21.80;13.30;;;;;;;4.81;80.51;98466.20;131187;1256;108557;-83
2023/11/14 01:39:08;;;;;;;27.30;17.80;;;;;;;4.90;80.62;98462.05;130943;1253;108423;-83
2023/11/14 01:42:14;;;;;;;26.80;17.10;;;;;;;4.96;80.94;98445.80;131084;1253;107685;-83
2023/11/14 01:45:20;;;;;;;21.30;14.40;;;;;;;5.00;81.00;98446.61;131071;1256;108594;-83
2023/11/14 01:48:26;;;;;;;23.30;16.00;;;;;;;5.01;80.88;98443.83;131148;1254;108640;-83
2023/11/14 01:51:32;;;;;;;43.90;23.20;;;;;;;5.00;81.31;98438.31;131029;1259;107810;-83
2023/11/14 01:54:40;;;;;;;24.30;15.00;;;;;;;4.98;81.50;98441.35;131136;1256;106990;-82
2023/11/14 01:57:47;;;;;;;22.10;14.40;;;;;;;5.00;81.72;98424.50;131111;1254;106778;-81
2023/11/14 02:00:54;;;;;;;24.70;15.70;;;;;;;5.03;81.96;98419.45;131110;1254;107187;-82
2023/11/14 02:04:00;;;;;;;24.60;16.30;;;;;;;5.09;81.88;98421.15;131191;1253;107106;-82
2023/11/14 02:07:07;;;;;;;24.00;16.50;;;;;;;5.17;81.92;98416.13;131133;1253;106708;-81
2023/11/14 02:10:13;;;;;;;22.70;15.30;;;;;;;5.23;81.87;98404.52;130954;1258;107491;-82
2023/11/14 02:13:19;;;;;;;19.60;13.50;;;;;;;5.24;82.07;98405.30;131035;1258;107021;-82
2023/11/14 02:16:26;;;;;;;20.00;12.70;;;;;;;5.22;82.32;98419.38;131177;1256;106843;-82
2023/11/14 02:19:32;;;;;;;20.70;13.30;;;;;;;5.23;82.36;98420.34;131149;1256;107746;-83
2023/11/14 02:22:38;;;;;;;20.70;13.50;;;;;;;5.26;82.70;98408.58;131037;1256;106764;-83
2023/11/14 02:25:44;;;;;;;21.30;13.10;;;;;;;5.29;82.59;98418.13;130945;1253;108488;-83
2023/11/14 02:28:55;;;;;;;19.70;14.10;;;;;;;5.35;82.70;98416.10;131041;1256;106380;-81
2023/11/14 02:32:01;;;;;;;21.40;14.10;;;;;;;5.40;82.97;98407.25;131029;1253;106947;-82
2023/11/14 02:35:07;;;;;;;19.90;14.10;;;;;;;5.41;82.81;98411.85;130957;1259;201488;-82
2023/11/14 02:38:13;;;;;;;23.00;14.20;;;;;;;5.45;82.76;98410.59;131039;1256;107735;-82
2023/11/14 02:41:18;;;;;;;19.50;13.20;;;;;;;5.44;83.09;98417.37;131097;1256;107625;-82
2023/11/14 02:44:26;;;;;;;23.00;13.80;;;;;;;5.45;83.34;98416.58;131070;1259;107589;-82
2023/11/14 02:47:32;;;;;;;20.60;13.30;;;;;;;5.46;83.46;98414.30;131079;1253;108579;-82
2023/11/14 02:50:53;;;;;;;23.90;14.40;;;;;;;5.51;83.82;98414.46;131067;1257;108616;-82
2023/11/14 02:53:59;;;;;;;21.10;14.70;;;;;;;5.60;83.73;98413.60;131187;1269;107916;-81
2023/11/14 02:57:07;;;;;;;21.90;14.40;;;;;;;5.67;83.79;98415.07;130810;1256;108726;-81
2023/11/14 03:00:16;;;;;;;21.70;14.70;;;;;;;5.71;83.86;98417.98;131089;1260;108256;-81
2023/11/14 03:03:21;;;;;;;23.50;15.70;;;;;;;5.75;83.97;98423.91;131311;1256;107592;-82
2023/11/14 03:06:27;;;;;;;23.40;14.30;;;;;;;5.77;84.21;98409.43;131087;1256;108746;-81
2023/11/14 03:09:33;;;;;;;23.20;14.60;;;;;;;5.77;84.28;98409.96;130967;1257;107779;-82
2023/11/14 03:12:39;;;;;;;21.20;13.40;;;;;;;5.79;84.09;98416.41;130888;1257;106738;-82
2023/11/14 03:15:44;;;;;;;20.50;14.00;;;;;;;5.85;84.33;98415.77;131129;1252;107511;-82
2023/11/14 03:18:50;;;;;;;21.90;14.90;;;;;;;5.92;84.54;98418.02;131151;1253;107560;-83
2023/11/14 03:21:56;;;;;;;22.00;15.40;;;;;;;6.01;84.36;98414.45;131113;1260;107307;-83
2023/11/14 03:25:01;;;;;;;22.10;14.90;;;;;;;6.06;84.37;98411.70;131116;1256;107497;-82
2023/11/14 03:28:07;;;;;;;38.90;21.60;;;;;;;6.09;84.59;98416.02;131078;1256;107266;-82
2023/11/14 03:31:24;;;;;;;56.40;34.30;;;;;;;6.12;84.75;98416.91;130921;1257;108711;-83
2023/11/14 03:34:29;;;;;;;26.20;17.90;;;;;;;6.15;84.70;98416.73;131133;1257;108536;-78
2023/11/14 03:37:35;;;;;;;30.10;19.10;;;;;;;6.20;85.14;98415.05;131188;1256;106472;-78
2023/11/14 03:40:41;;;;;;;27.40;18.70;;;;;;;6.28;85.50;98407.22;130765;1259;107554;-78
2023/11/14 03:43:46;;;;;;;233.20;62.00;;;;;;;6.37;85.69;98400.01;131167;1260;106800;-81
2023/11/14 03:46:52;;;;;;;61.00;27.30;;;;;;;6.46;85.94;98402.40;131397;1256;106657;-81
2023/11/14 03:49:57;;;;;;;28.90;18.30;;;;;;;6.53;85.94;98408.52;131190;1256;108518;-81
2023/11/14 03:53:03;;;;;;;24.70;16.30;;;;;;;6.57;86.25;98412.58;131012;1254;106651;-81
2023/11/14 03:56:09;;;;;;;19.40;13.60;;;;;;;6.62;86.21;98415.10;131074;1256;106495;-81
2023/11/14 03:59:15;;;;;;;20.70;15.30;;;;;;;6.66;86.88;98415.98;131072;1255;108028;-82
2023/11/14 04:02:20;;;;;;;23.30;13.50;;;;;;;6.73;87.48;98415.54;131153;1256;107371;-81
2023/11/14 04:05:26;;;;;;;18.00;11.60;;;;;;;6.83;87.73;98427.52;131192;1253;106394;-81
2023/11/14 04:08:32;;;;;;;46.30;31.90;;;;;;;6.95;88.23;98433.23;131174;1256;107560;-81
2023/11/14 04:11:44;;;;;;;119.80;50.90;;;;;;;7.08;89.04;98425.05;131079;1256;107579;-81
2023/11/14 04:14:49;;;;;;;22.40;13.30;;;;;;;7.17;89.13;98415.85;131075;1257;105943;-81
2023/11/14 04:17:56;;;;;;;19.80;12.80;;;;;;;7.24;89.60;98411.39;131160;1260;106401;-81
2023/11/14 04:21:02;;;;;;;16.30;10.60;;;;;;;7.30;89.57;98407.08;131227;1256;107023;-81
2023/11/14 04:24:09;;;;;;;20.20;16.00;;;;;;;7.40;90.53;98410.96;131054;1256;107294;-82
2023/11/14 04:27:16;;;;;;;48.00;24.90;;;;;;;7.48;90.19;98416.86;131018;1261;107016;-83
2023/11/14 04:30:22;;;;;;;25.80;16.40;;;;;;;7.56;90.32;98413.71;131105;1253;106338;-83
2023/11/14 04:33:27;;;;;;;14.10;9.20;;;;;;;7.59;90.88;98413.36;131090;1256;108643;-82
2023/11/14 04:36:34;;;;;;;10.10;7.80;;;;;;;7.58;90.54;98416.98;131300;1266;106554;-82
2023/11/14 04:39:40;;;;;;;40.80;17.00;;;;;;;7.62;90.77;98413.82;131154;1254;107275;-82
2023/11/14 04:42:46;;;;;;;11.30;7.30;;;;;;;7.68;91.03;98413.13;131137;1259;107815;-82
2023/11/14 04:45:52;;;;;;;12.70;8.80;;;;;;;7.75;90.89;98420.89;131225;1266;106265;-82
2023/11/14 04:48:58;;;;;;;11.80;9.60;;;;;;;7.81;91.87;98422.42;131296;1256;107448;-82
2023/11/14 04:52:04;;;;;;;88.10;30.00;;;;;;;7.83;91.48;98421.77;131213;1262;106330;-82
2023/11/14 04:55:10;;;;;;;49.00;19.30;;;;;;;7.86;91.32;98421.14;131146;1256;106455;-82
2023/11/14 04:58:16;;;;;;;35.00;14.50;;;;;;;7.90;91.24;98427.98;131204;1254;107132;-82
2023/11/14 05:01:21;;;;;;;39.70;15.00;;;;;;;7.97;91.46;98429.80;131236;1257;106666;-81
2023/11/14 05:04:27;;;;;;;13.70;10.40;;;;;;;8.03;91.66;98439.27;131051;1256;105590;-81
2023/11/14 05:07:32;;;;;;;12.70;9.40;;;;;;;8.05;91.38;98444.39;131160;1256;106989;-81
2023/11/14 05:10:38;;;;;;;15.70;10.00;;;;;;;8.09;92.01;98452.26;131182;1257;107421;-81
2023/11/14 05:13:44;;;;;;;22.70;9.20;;;;;;;8.13;91.86;98463.88;131099;1257;108757;-81
2023/11/14 05:16:49;;;;;;;53.40;19.50;;;;;;;8.19;91.99;98468.63;131141;1257;106747;-82
2023/11/14 05:19:57;;;;;;;29.60;12.10;;;;;;;8.25;91.83;98477.97;131220;1256;107722;-81
2023/11/14 05:23:03;;;;;;;56.70;20.00;;;;;;;8.31;91.92;98476.21;131127;1257;107639;-81
2023/11/14 05:26:09;;;;;;;39.00;16.20;;;;;;;8.36;92.01;98484.17;131104;1266;109358;-81
2023/11/14 05:29:15;;;;;;;13.80;10.00;;;;;;;8.36;91.97;98489.86;131112;1257;106947;-81
2023/11/14 05:32:21;;;;;;;12.70;8.10;;;;;;;8.36;92.26;98489.45;131156;1254;106984;-82
2023/11/14 05:35:27;;;;;;;38.10;18.80;;;;;;;8.38;92.94;98497.89;131150;1256;106742;-82
2023/11/14 05:38:33;;;;;;;17.50;12.70;;;;;;;8.44;92.79;98499.40;131124;1256;108631;-81
2023/11/14 05:41:40;;;;;;;42.00;25.00;;;;;;;8.51;92.88;98503.55;131056;1253;108456;-81
2023/11/14 05:44:46;;;;;;;166.70;73.40;;;;;;;8.56;92.77;98507.10;131101;1254;107595;-81
2023/11/14 05:47:51;;;;;;;63.30;30.20;;;;;;;8.59;93.05;98512.79;131071;1256;107912;-80
2023/11/14 05:50:57;;;;;;;466.20;182.50;;;;;;;8.60;93.47;98515.21;131089;1265;108698;-80
2023/11/14 05:54:02;;;;;;;147.90;45.50;;;;;;;8.61;93.77;98521.41;131069;1257;107920;-81
2023/11/14 05:57:08;;;;;;;194.80;56.10;;;;;;;8.63;93.39;98522.21;131192;1258;108703;-81
2023/11/14 06:00:15;;;;;;;305.20;112.70;;;;;;;8.69;93.42;98526.04;131052;1266;107152;-81
2023/11/14 06:03:22;;;;;;;90.90;37.30;;;;;;;8.72;93.71;98532.35;130989;1256;108672;-80
2023/11/14 06:06:28;;;;;;;90.00;38.40;;;;;;;8.73;93.35;98537.21;131195;1257;108289;-81
2023/11/14 06:09:35;;;;;;;62.40;27.50;;;;;;;8.76;93.12;98542.93;131158;1257;108615;-80
2023/11/14 06:12:41;;;;;;;124.80;54.60;;;;;;;8.81;93.78;98548.47;131135;1258;107278;-80
2023/11/14 06:15:47;;;;;;;49.60;20.40;;;;;;;8.86;93.85;98553.56;130921;1257;107073;-80
2023/11/14 06:18:52;;;;;;;155.40;60.00;;;;;;;8.90;93.66;98557.52;131124;1258;108035;-81
2023/11/14 06:21:58;;;;;;;106.20;40.60;;;;;;;8.93;93.79;98564.43;131030;1267;106257;-80
2023/11/14 06:25:04;;;;;;;111.40;45.00;;;;;;;8.94;93.87;98565.14;131084;1256;108536;-81
2023/11/14 06:28:10;;;;;;;77.10;30.70;;;;;;;8.97;93.59;98569.73;131133;1262;108488;-81
2023/11/14 06:31:15;;;;;;;267.50;113.30;;;;;;;9.02;93.52;98568.45;131102;1256;107680;-81
2023/11/14 06:34:22;;;;;;;147.50;64.00;;;;;;;9.08;93.54;98575.39;131188;1254;107743;-81
2023/11/14 06:37:27;;;;;;;103.40;38.90;;;;;;;9.09;93.53;98576.84;131055;1257;108970;-81
2023/11/14 06:40:33;;;;;;;72.00;34.50;;;;;;;9.10;93.64;98588.44;131094;1267;107577;-81
2023/11/14 06:43:39;;;;;;;29.70;19.80;;;;;;;9.11;93.74;98590.42;131056;1256;106873;-81
2023/11/14 06:46:44;;;;;;;44.20;33.30;;;;;;;9.14;93.83;98595.65;131109;1257;107874;-80
2023/11/14 06:49:50;;;;;;;28.50;19.50;;;;;;;9.18;93.59;98591.81;131108;1266;108307;-80
2023/11/14 06:52:57;;;;;;;20.10;10.30;;;;;;;9.20;93.63;98598.11;131079;1257;106402;-82
2023/11/14 06:56:04;;;;;;;12.20;6.00;;;;;;;9.20;94.00;98595.41;131303;1257;108442;-83
2023/11/14 06:59:10;;;;;;;25.40;17.20;;;;;;;9.20;94.44;98596.45;131054;1255;107685;-84
2023/11/14 07:02:15;;;;;;;13.10;6.20;;;;;;;9.23;94.08;98595.60;131107;1254;108570;-85
2023/11/14 07:05:21;;;;;;;11.40;5.90;;;;;;;9.27;94.09;98602.04;131358;1257;108000;-84
2023/11/14 07:08:30;;;;;;;9.80;4.50;;;;;;;9.27;94.31;98602.21;131066;1266;107272;-84
2023/11/14 07:11:35;;;;;;;8.70;4.20;;;;;;;9.24;94.23;98597.42;131132;1255;108515;-84
2023/11/14 07:14:40;;;;;;;12.10;5.20;;;;;;;9.27;94.53;98593.98;131232;1260;108201;-84
2023/11/14 07:17:46;;;;;;;10.00;6.30;;;;;;;9.33;94.36;98593.28;131118;1254;106531;-84
2023/11/14 07:20:52;;;;;;;15.40;7.50;;;;;;;9.40;94.25;98597.58;131203;1254;106701;-84
2023/11/14 07:23:57;;;;;;;20.60;13.40;;;;;;;9.42;94.11;98597.66;130921;1257;107442;-84
2023/11/14 07:27:05;;;;;;;334.50;111.50;;;;;;;9.45;94.35;98597.55;131128;1254;107583;-84
2023/11/14 07:30:12;;;;;;;550.50;239.00;;;;;;;9.48;94.09;98602.46;131104;1255;107521;-84
2023/11/14 07:33:18;;;;;;;530.00;219.80;;;;;;;9.56;94.08;98603.49;131143;1258;106486;-84
2023/11/14 07:36:24;;;;;;;188.90;61.00;;;;;;;9.67;93.85;98609.98;131175;1254;106700;-84
2023/11/14 07:39:31;;;;;;;434.60;153.70;;;;;;;9.74;93.86;98617.19;131213;1255;106530;-84
2023/11/14 07:42:38;;;;;;;120.70;40.20;;;;;;;9.78;93.85;98618.05;131047;1257;107732;-84
2023/11/14 07:45:44;;;;;;;332.10;107.20;;;;;;;9.74;93.88;98608.55;131244;1254;108684;-84
2023/11/14 07:48:49;;;;;;;827.50;370.60;;;;;;;9.77;93.72;98605.55;131115;1258;106376;-84
2023/11/14 07:51:55;;;;;;;1069.50;467.20;;;;;;;9.80;93.90;98612.83;131367;1256;108091;-85
2023/11/14 07:55:03;;;;;;;735.70;280.20;;;;;;;9.82;93.74;98612.13;131168;1257;106102;-84
2023/11/14 07:58:08;;;;;;;1096.00;461.90;;;;;;;9.84;93.76;98609.84;131109;1257;107984;-84
2023/11/14 08:01:14;;;;;;;978.90;416.00;;;;;;;9.87;93.48;98607.85;131130;1258;107197;-84
2023/11/14 08:04:19;;;;;;;847.80;441.50;;;;;;;9.94;93.66;98604.73;131226;1256;108810;-84
2023/11/14 08:07:25;;;;;;;456.60;256.60;;;;;;;9.99;93.65;98603.23;131075;1255;108704;-84
2023/11/14 08:10:30;;;;;;;370.10;165.60;;;;;;;9.99;93.25;98601.63;131090;1254;107243;-85
2023/11/14 08:13:36;;;;;;;567.60;295.50;;;;;;;9.96;92.79;98608.06;131104;1253;107721;-84
2023/11/14 08:16:41;;;;;;;98.00;54.40;;;;;;;9.97;92.87;98607.23;131087;1256;107324;-84
2023/11/14 08:19:47;;;;;;;44.30;23.80;;;;;;;10.00;92.92;98604.47;131208;1256;107105;-84
2023/11/14 08:22:53;;;;;;;74.00;43.20;;;;;;;10.05;92.81;98610.95;131101;1254;106486;-84
2023/11/14 08:25:58;;;;;;;37.50;23.30;;;;;;;10.07;92.58;98611.42;131168;1252;106604;-84
2023/11/14 08:29:04;;;;;;;25.80;13.80;;;;;;;10.11;92.76;98615.44;131177;1255;107752;-84
2023/11/14 08:32:11;;;;;;;31.90;19.90;;;;;;;10.16;92.46;98622.09;131241;1256;107969;-84
2023/11/14 08:35:18;;;;;;;24.60;17.30;;;;;;;10.23;92.60;98620.51;131235;1256;107572;-84
2023/11/14 08:38:24;;;;;;;42.90;29.20;;;;;;;10.31;92.29;98626.30;131209;1261;107759;-84
2023/11/14 08:41:30;;;;;;;39.00;24.50;;;;;;;10.41;92.00;98630.25;131106;1256;107156;-84
2023/11/14 08:44:36;;;;;;;65.50;44.40;;;;;;;10.52;92.13;98625.14;131099;1254;107131;-84
2023/11/14 08:47:41;;;;;;;58.80;40.60;;;;;;;10.61;91.96;98623.24;131171;1255;106411;-84
2023/11/14 08:50:47;;;;;;;19.40;13.30;;;;;;;10.67;91.47;98625.70;131352;1254;106517;-83
2023/11/14 08:53:52;;;;;;;22.20;13.90;;;;;;;10.71;91.31;98626.77;131053;1257;105885;-84
2023/11/14 08:57:00;;;;;;;19.70;13.60;;;;;;;10.78;90.91;98626.29;131056;1256;107555;-84
2023/11/14 09:00:10;;;;;;;23.00;14.00;;;;;;;10.85;90.77;98620.45;131134;1253;107584;-83
2023/11/14 09:03:16;;;;;;;17.30;9.00;;;;;;;10.92;90.69;98615.79;131027;1252;107437;-83
2023/11/14 09:06:24;;;;;;;10.80;4.60;;;;;;;10.98;89.92;98619.06;131052;1257;106873;-83
2023/11/14 09:09:29;;;;;;;10.00;3.50;;;;;;;11.03;90.19;98619.90;131147;1257;108500;-83
2023/11/14 09:12:35;;;;;;;12.50;3.20;;;;;;;11.08;90.11;98618.95;131153;1260;108563;-83
2023/11/14 09:15:41;;;;;;;11.20;3.20;;;;;;;11.13;90.23;98625.35;131146;1254;106137;-83
2023/11/14 09:18:46;;;;;;;8.10;2.50;;;;;;;11.19;89.96;98630.71;131204;1257;105859;-83
2023/11/14 09:21:52;;;;;;;7.30;2.40;;;;;;;11.25;89.43;98635.73;131254;1257;106840;-83
2023/11/14 09:24:58;;;;;;;12.10;3.50;;;;;;;11.30;88.70;98629.23;131140;1252;106271;-83
2023/11/14 09:28:03;;;;;;;10.40;3.00;;;;;;;11.36;88.98;98635.09;131086;1252;107002;-83
2023/11/14 09:31:09;;;;;;;12.10;2.80;;;;;;;11.40;88.19;98630.38;131137;1258;107750;-83
2023/11/14 09:34:15;;;;;;;11.40;3.70;;;;;;;11.40;87.51;98624.52;131161;1256;107734;-83
2023/11/14 09:37:21;;;;;;;7.00;1.70;;;;;;;11.46;88.31;98621.73;131257;1253;107542;-83
2023/11/14 09:40:26;;;;;;;9.70;2.70;;;;;;;11.52;87.65;98626.04;131146;1256;106648;-83
2023/11/14 09:43:33;;;;;;;12.10;3.50;;;;;;;11.55;87.19;98628.48;131139;1252;108610;-83
2023/11/14 09:46:40;;;;;;;13.90;4.20;;;;;;;11.57;87.06;98622.89;131119;1254;108315;-84
2023/11/14 09:49:45;;;;;;;8.90;2.50;;;;;;;11.62;87.23;98622.27;131203;1252;106727;-83
2023/11/14 09:52:53;;;;;;;9.10;2.80;;;;;;;11.64;86.56;98627.73;131127;1254;107713;-83
2023/11/14 09:55:59;;;;;;;10.00;2.90;;;;;;;11.64;86.60;98628.55;131147;1254;107749;-83
2023/11/14 09:59:05;;;;;;;11.90;3.60;;;;;;;11.65;86.29;98627.31;131141;1256;106965;-83
2023/11/14 10:02:11;;;;;;;8.20;3.00;;;;;;;11.69;85.51;98625.64;131121;1254;108405;-83
2023/11/14 10:05:17;;;;;;;7.20;2.40;;;;;;;11.72;85.55;98630.92;131183;1257;108417;-84
2023/11/14 10:08:23;;;;;;;16.90;4.40;;;;;;;11.79;85.83;98624.70;131131;1253;108459;-84
2023/11/14 10:11:43;;;;;;;8.10;2.40;;;;;;;11.86;85.56;98623.44;131205;1253;107270;-83
2023/11/14 10:14:48;;;;;;;9.70;3.20;;;;;;;11.92;85.33;98619.48;131155;1256;107450;-83
2023/11/14 10:17:54;;;;;;;8.00;2.30;;;;;;;12.01;85.27;98625.77;131185;1254;108662;-83
2023/11/14 10:21:00;;;;;;;8.00;3.00;;;;;;;12.06;85.20;98614.18;131183;1256;106968;-85
2023/11/14 10:24:13;;;;;;;14.90;3.40;;;;;;;12.09;84.98;98613.57;131169;1260;108665;-85
2023/11/14 10:27:28;;;;;;;17.60;4.50;;;;;;;12.09;83.34;98617.02;131069;1253;108471;-85
2023/11/14 10:30:49;;;;;;;7.30;2.40;;;;;;;12.04;82.20;98621.33;131169;1256;107718;-85
2023/11/14 10:33:55;;;;;;;5.70;2.10;;;;;;;12.02;83.45;98621.67;131214;1257;108747;-85
2023/11/14 10:37:02;;;;;;;9.00;3.10;;;;;;;12.06;83.80;98616.66;131212;1256;107743;-85
2023/11/14 10:40:11;;;;;;;14.90;3.60;;;;;;;12.04;82.77;98610.55;131208;1254;107945;-85
2023/11/14 10:43:25;;;;;;;13.50;3.90;;;;;;;11.92;82.87;98612.01;131100;1256;107662;-85
2023/11/14 10:46:32;;;;;;;10.20;2.70;;;;;;;11.79;82.67;98615.36;131040;1256;106356;-85
2023/11/14 10:49:46;;;;;;;12.00;3.50;;;;;;;11.69;82.21;98607.94;131249;1256;107661;-84
2023/11/14 10:52:52;;;;;;;13.50;4.00;;;;;;;11.62;82.43;98609.84;131204;1256;108061;-83
2023/11/14 10:55:58;;;;;;;10.60;3.50;;;;;;;11.62;81.57;98619.84;131252;1256;106644;-84
2023/11/14 10:59:10;;;;;;;16.70;3.90;;;;;;;11.70;82.49;98621.55;131201;1256;108652;-83
2023/11/14 11:02:16;;;;;;;10.10;2.90;;;;;;;11.84;82.70;98620.97;131116;1253;107503;-84
2023/11/14 11:05:28;;;;;;;9.10;2.70;;;;;;;11.98;82.25;98617.90;131197;1253;108465;-84
2023/11/14 11:08:33;;;;;;;9.10;2.90;;;;;;;12.07;82.05;98619.73;130990;1265;107843;-85
2023/11/14 11:11:42;;;;;;;13.60;3.20;;;;;;;12.10;81.54;98622.41;130991;1256;108703;-86
2023/11/14 11:14:49;;;;;;;8.00;2.90;;;;;;;12.12;82.03;98610.23;131098;1256;108569;-84
2023/11/14 11:18:03;;;;;;;7.10;2.40;;;;;;;12.12;82.00;98609.84;131112;1256;107673;-86
2023/11/14 11:21:13;;;;;;;9.50;3.10;;;;;;;12.18;81.83;98598.52;131222;1254;107555;-84
2023/11/14 11:24:19;;;;;;;11.20;3.20;;;;;;;12.23;81.90;98603.14;131149;1260;106983;-84
2023/11/14 11:27:25;;;;;;;9.40;3.10;;;;;;;12.25;81.91;98601.00;131145;1254;106757;-84
2023/11/14 11:30:31;;;;;;;9.60;2.80;;;;;;;12.27;81.89;98606.11;131109;1254;106968;-83
2023/11/14 11:33:41;;;;;;;9.70;2.90;;;;;;;12.28;81.32;98601.46;131079;1256;106498;-84
2023/11/14 11:36:47;;;;;;;8.30;2.80;;;;;;;12.29;81.44;98605.78;131290;1256;106820;-84
2023/11/14 11:43:28;;;;;;;11.40;3.10;;;;;;;12.24;81.19;98598.28;127209;1294;635856;-84
2023/11/14 11:46:45;;;;;;;10.50;3.50;;;;;;;12.16;81.53;98604.66;130284;1264;107761;-84
2023/11/14 11:49:51;;;;;;;13.70;4.20;;;;;;;12.15;81.94;98602.96;130379;1263;107656;-84
2023/11/14 11:53:07;;;;;;;10.60;3.20;;;;;;;12.17;81.85;98601.11;130279;1267;108437;-84
2023/11/14 11:56:41;;;;;;;8.80;2.70;;;;;;;12.23;81.43;98596.48;130170;1267;168450;-83
2023/11/14 12:00:22;;;;;;;10.50;3.10;;;;;;;12.26;81.26;98597.26;130351;1261;108702;-84
2023/11/14 12:03:28;;;;;;;8.40;3.10;;;;;;;12.36;81.27;98596.49;130396;1265;107663;-84
2023/11/14 12:06:34;;;;;;;7.70;2.30;;;;;;;12.41;80.75;98598.98;130472;1263;108015;-84
2023/11/14 12:09:40;;;;;;;12.70;2.90;;;;;;;12.44;80.43;98600.96;130413;1265;107767;-84
2023/11/14 12:12:47;;;;;;;12.70;3.00;;;;;;;12.49;80.75;98595.05;130433;1260;107711;-84
2023/11/14 12:15:53;;;;;;;10.10;3.20;;;;;;;12.50;79.96;98598.79;130606;1263;107848;-84
2023/11/14 12:19:00;;;;;;;10.00;3.20;;;;;;;12.47;79.56;98594.30;130463;1260;107436;-83
2023/11/14 12:22:07;;;;;;;12.90;3.70;;;;;;;12.44;79.68;98602.70;130535;1260;106583;-84
2023/11/14 12:25:14;;;;;;;19.00;5.00;;;;;;;12.39;79.94;98601.09;131029;1253;106651;-84
2023/11/14 12:28:20;;;;;;;9.70;2.90;;;;;;;12.33;79.48;98599.94;131059;1253;106933;-83
2023/11/14 12:31:28;;;;;;;10.00;2.40;;;;;;;12.23;79.55;98600.02;131004;1253;107645;-84
2023/11/14 12:34:34;;;;;;;7.20;2.40;;;;;;;12.13;79.49;98600.90;131048;1253;107288;-84
2023/11/14 12:37:48;;;;;;;11.60;3.20;;;;;;;12.10;79.86;98597.48;130972;1253;106865;-83
2023/11/14 12:41:08;;;;;;;19.80;5.00;;;;;;;12.09;80.26;98601.48;131070;1256;106675;-83
2023/11/14 12:44:15;;;;;;;8.20;2.40;;;;;;;12.11;79.69;98596.67;131034;1253;108633;-84
2023/11/14 12:47:24;;;;;;;7.70;2.50;;;;;;;12.11;80.04;98589.75;131007;1258;108488;-84
2023/11/14 12:50:33;;;;;;;10.10;2.60;;;;;;;12.13;79.75;98591.56;131143;1256;107798;-84
2023/11/14 12:53:41;;;;;;;12.30;3.10;;;;;;;12.13;79.85;98590.24;131034;1253;105915;-83
2023/11/14 12:56:47;;;;;;;8.40;3.00;;;;;;;12.14;79.55;98595.15;131001;1257;106775;-83
2023/11/14 12:59:52;;;;;;;8.10;3.10;;;;;;;12.11;79.80;98588.40;130959;1253;106634;-83
2023/11/14 13:02:58;;;;;;;15.00;5.00;;;;;;;12.07;79.39;98587.87;131105;1252;108489;-85
2023/11/14 13:06:04;;;;;;;24.70;10.20;;;;;;;12.00;79.54;98590.98;130978;1257;107760;-84
2023/11/14 13:09:10;;;;;;;39.40;13.70;;;;;;;11.93;79.42;98597.73;131086;1257;107537;-84
2023/11/14 13:12:17;;;;;;;41.10;17.90;;;;;;;11.86;79.57;98594.25;131009;1254;107469;-84
2023/11/14 13:15:24;;;;;;;103.80;44.50;;;;;;;11.83;79.73;98591.93;131001;1254;106565;-83
2023/11/14 13:18:30;;;;;;;86.90;34.40;;;;;;;11.81;79.74;98598.64;130924;1255;109403;-84
2023/11/14 13:21:35;;;;;;;53.30;19.30;;;;;;;11.77;79.47;98603.23;131063;1257;107785;-84
2023/11/14 13:24:41;;;;;;;56.60;22.20;;;;;;;11.70;79.73;98605.84;130985;1252;106959;-84
2023/11/14 13:27:46;;;;;;;161.80;80.70;;;;;;;11.64;79.75;98603.52;130950;1256;107497;-84
2023/11/14 13:30:52;;;;;;;36.20;17.20;;;;;;;11.59;79.95;98602.51;130944;1258;106933;-84
2023/11/14 13:33:57;;;;;;;49.70;21.70;;;;;;;11.55;80.08;98601.77;130891;1255;107570;-84
2023/11/14 13:37:03;;;;;;;104.50;49.30;;;;;;;11.50;80.23;98602.23;131031;1253;108359;-83
2023/11/14 13:40:11;;;;;;;46.70;20.20;;;;;;;11.45;80.41;98592.60;130980;1257;107051;-83
2023/11/14 13:43:17;;;;;;;24.40;12.10;;;;;;;11.42;80.92;98588.41;130994;1253;108400;-83
2023/11/14 13:46:22;;;;;;;32.60;17.80;;;;;;;11.44;80.94;98586.19;130818;1257;106589;-84
2023/11/14 13:49:28;;;;;;;91.40;55.00;;;;;;;11.45;80.88;98585.54;130858;1257;107932;-83
2023/11/14 13:52:33;;;;;;;69.80;37.70;;;;;;;11.43;81.04;98582.92;130987;1268;106662;-83
2023/11/14 13:55:40;;;;;;;160.10;82.20;;;;;;;11.39;80.70;98581.40;131009;1255;108391;-83
2023/11/14 13:58:46;;;;;;;96.40;54.00;;;;;;;11.35;80.47;98581.68;130986;1257;108597;-83
2023/11/14 14:01:52;;;;;;;28.80;15.20;;;;;;;11.30;80.77;98581.36;131076;1254;106545;-86
2023/11/14 14:04:58;;;;;;;12.80;5.60;;;;;;;11.25;80.54;98582.86;130978;1253;108649;-84
2023/11/14 14:08:04;;;;;;;12.00;5.90;;;;;;;11.20;80.51;98588.50;130934;1257;106953;-84
2023/11/14 14:11:10;;;;;;;12.80;5.80;;;;;;;11.17;80.39;98586.40;130962;1254;106529;-84
2023/11/14 14:14:19;;;;;;;15.80;10.60;;;;;;;11.19;80.42;98586.65;130948;1253;106734;-85